createdAt,value
2019-02-07T17:32:42.467Z,996.26
2019-02-07T17:33:42.236Z,996.21
2019-02-07T17:35:36.614Z,996.21
2019-02-07T17:36:36.575Z,996.18
2019-02-07T17:38:30.956Z,996.14
2019-02-07T17:39:30.977Z,996.16
2019-02-07T17:41:25.278Z,996.25
2019-02-07T17:42:25.284Z,996.25
2019-02-07T17:44:19.711Z,996.29
2019-02-07T17:45:19.623Z,996.32
2019-02-07T17:47:13.977Z,996.36
2019-02-07T17:48:13.967Z,996.39
2019-02-07T17:50:08.376Z,996.43
2019-02-07T17:51:08.336Z,996.46
2019-02-07T17:53:02.722Z,996.51
2019-02-07T17:54:02.692Z,996.51
2019-02-07T17:55:57.071Z,996.54
2019-02-07T17:56:57.043Z,996.58
2019-02-07T17:58:51.393Z,996.64
2019-02-07T17:59:51.381Z,996.67
2019-02-07T18:01:45.815Z,996.70
2019-02-07T18:02:45.728Z,996.73
2019-02-07T18:04:40.103Z,996.83
2019-02-07T18:05:40.091Z,996.86
2019-02-07T18:07:34.464Z,996.97
2019-02-07T18:08:34.469Z,997.05
2019-02-07T18:10:28.870Z,997.20
2019-02-07T18:11:28.849Z,997.21
2019-02-07T18:13:23.190Z,997.17
2019-02-07T18:14:23.125Z,997.13
2019-02-07T18:16:17.478Z,997.14
2019-02-07T18:17:17.471Z,997.16
2019-02-07T18:19:11.854Z,997.19
2019-02-07T18:20:11.834Z,997.16
2019-02-07T18:22:06.175Z,997.12
2019-02-07T18:23:06.167Z,997.12
2019-02-07T18:25:00.555Z,997.20
2019-02-07T18:26:00.508Z,997.28
2019-02-07T18:27:54.929Z,997.37
2019-02-07T18:28:54.870Z,997.33
2019-02-07T18:30:49.231Z,997.42
2019-02-07T18:31:49.209Z,997.40
2019-02-07T18:33:43.674Z,997.42
2019-02-07T18:34:43.555Z,997.44
2019-02-07T18:36:37.918Z,997.51
2019-02-07T18:37:37.918Z,997.47
2019-02-07T18:39:32.524Z,997.49
2019-02-07T18:40:32.255Z,997.45
2019-02-07T18:42:26.613Z,997.52
2019-02-07T18:43:26.601Z,997.49
2019-02-07T18:45:20.970Z,997.44
2019-02-07T18:46:20.955Z,997.46
2019-02-07T18:48:15.345Z,997.44
2019-02-07T18:49:15.331Z,997.46
2019-02-07T18:51:09.714Z,997.42
2019-02-07T18:52:09.684Z,997.40
2019-02-07T18:54:04.034Z,997.40
2019-02-07T18:55:04.016Z,997.42
2019-02-07T18:56:58.515Z,997.40
2019-02-07T18:57:58.386Z,997.42
2019-02-07T18:59:52.742Z,997.35
2019-02-07T19:00:52.775Z,997.30
2019-02-07T19:02:47.131Z,997.38
2019-02-07T19:03:47.074Z,997.32
2019-02-07T19:05:41.441Z,997.28
2019-02-07T19:06:41.416Z,997.33
2019-02-07T19:08:35.795Z,997.31
2019-02-07T19:09:35.752Z,997.28
2019-02-07T19:11:30.106Z,997.31
2019-02-07T19:12:30.096Z,997.36
2019-02-07T19:14:24.501Z,997.40
2019-02-07T19:15:24.454Z,997.39
2019-02-07T19:17:18.888Z,997.37
2019-02-07T19:18:18.806Z,997.42
2019-02-07T19:20:13.195Z,997.43
2019-02-07T19:21:13.186Z,997.41
2019-02-07T19:23:07.509Z,997.39
2019-02-07T19:24:07.490Z,997.35
2019-02-07T19:26:01.874Z,997.34
2019-02-07T19:27:01.843Z,997.35
2019-02-07T19:28:56.194Z,997.33
2019-02-07T19:29:56.189Z,997.37
2019-02-07T19:31:50.606Z,997.30
2019-02-07T19:32:50.532Z,997.29
2019-02-07T19:34:44.906Z,997.36
2019-02-07T19:35:44.889Z,997.33
2019-02-07T19:37:39.330Z,997.31
2019-02-07T19:38:39.246Z,997.31
2019-02-07T19:40:33.669Z,997.32
2019-02-07T19:41:34.228Z,997.30
2019-02-07T19:43:32.630Z,997.29
2019-02-07T19:44:32.295Z,997.28
2019-02-07T19:46:26.725Z,997.25
2019-02-07T19:47:26.643Z,997.30
2019-02-07T19:49:22.617Z,997.31
2019-02-07T19:50:20.985Z,997.32
2019-02-07T19:52:15.361Z,997.35
2019-02-07T19:53:15.340Z,997.28
2019-02-07T19:55:09.694Z,997.25
2019-02-07T19:56:09.688Z,997.22
2019-02-07T19:58:04.087Z,997.21
2019-02-07T19:59:04.030Z,997.18
2019-02-07T20:00:58.412Z,997.16
2019-02-07T20:01:58.380Z,997.21
2019-02-07T20:03:52.779Z,997.27
2019-02-07T20:04:52.822Z,997.28
2019-02-07T20:06:47.209Z,997.33
2019-02-07T20:07:47.065Z,997.31
2019-02-07T20:09:41.425Z,997.35
2019-02-07T20:10:41.489Z,997.41
2019-02-07T20:12:35.763Z,997.44
2019-02-07T20:13:35.853Z,997.40
2019-02-07T20:15:30.108Z,997.34
2019-02-07T20:16:30.104Z,997.37
2019-02-07T20:18:24.457Z,997.40
2019-02-07T20:19:24.446Z,997.38
2019-02-07T20:21:18.816Z,997.38
2019-02-07T20:22:20.494Z,997.42
2019-02-07T20:24:13.253Z,997.43
2019-02-07T20:25:13.207Z,997.49
2019-02-07T20:27:07.569Z,997.50
2019-02-07T20:28:07.555Z,997.57
2019-02-07T20:30:01.945Z,997.53
2019-02-07T20:31:01.985Z,997.54
2019-02-07T20:32:57.900Z,997.49
2019-02-07T20:33:56.478Z,997.52
2019-02-07T20:35:50.843Z,997.63
2019-02-07T20:36:50.902Z,997.65
2019-02-07T20:37:50.815Z,997.64
2019-02-07T20:38:50.801Z,997.70
2019-02-07T20:39:51.822Z,997.73
2019-02-07T20:40:50.788Z,997.67
2019-02-07T20:41:50.781Z,997.72
2019-02-07T20:42:50.763Z,997.76
2019-02-07T20:43:51.336Z,997.75
2019-02-07T20:44:50.744Z,997.73
2019-02-07T20:45:50.735Z,997.83
2019-02-07T20:46:50.726Z,997.85
2019-02-07T20:47:50.731Z,997.81
2019-02-07T20:48:50.711Z,997.84
2019-02-07T20:49:50.722Z,997.84
2019-02-07T20:50:50.686Z,997.82
2019-02-07T20:51:50.864Z,997.82
2019-02-07T20:52:50.678Z,997.84
2019-02-07T20:53:50.655Z,997.85
2019-02-07T20:54:50.650Z,997.84
2019-02-07T20:55:50.638Z,997.85
2019-02-07T20:56:50.624Z,997.89
2019-02-07T20:57:50.629Z,997.96
2019-02-07T20:58:50.607Z,997.98
2019-02-07T20:59:50.607Z,997.98
2019-02-07T21:00:50.606Z,998.01
2019-02-07T21:01:50.581Z,998.09
2019-02-07T21:02:50.826Z,998.06
2019-02-07T21:03:50.558Z,998.14
2019-02-07T21:04:50.548Z,998.10
2019-02-07T21:05:50.554Z,998.08
2019-02-07T21:06:50.534Z,998.11
2019-02-07T21:07:50.520Z,998.09
2019-02-07T21:08:50.511Z,998.09
2019-02-07T21:09:50.499Z,998.10
2019-02-07T21:10:50.487Z,998.12
2019-02-07T21:11:50.482Z,998.14
2019-02-07T21:12:50.472Z,998.09
2019-02-07T21:13:50.463Z,998.13
2019-02-07T21:14:50.451Z,998.08
2019-02-07T21:15:50.444Z,998.07
2019-02-07T21:16:50.431Z,998.02
2019-02-07T21:17:50.422Z,998.01
2019-02-07T21:18:50.411Z,998.04
2019-02-07T21:19:50.402Z,998.09
2019-02-07T21:20:50.393Z,998.05
2019-02-07T21:21:50.384Z,998.07
2019-02-07T21:22:50.373Z,998.15
2019-02-07T21:23:50.365Z,998.11
2019-02-07T21:24:50.356Z,998.16
2019-02-07T21:25:50.340Z,998.17
2019-02-07T21:26:50.331Z,998.12
2019-02-07T21:27:50.321Z,998.16
2019-02-07T21:28:50.316Z,998.16
2019-02-07T21:29:50.308Z,998.16
2019-02-07T21:30:50.298Z,998.19
2019-02-07T21:31:50.290Z,998.22
2019-02-07T21:32:50.317Z,998.18
2019-02-07T21:33:50.288Z,998.23
2019-02-07T21:34:50.258Z,998.26
2019-02-07T21:35:50.250Z,998.22
2019-02-07T21:36:50.243Z,998.20
2019-02-07T21:37:50.226Z,998.24
2019-02-07T21:38:50.218Z,998.24
2019-02-07T21:39:50.211Z,998.27
2019-02-07T21:40:50.198Z,998.21
2019-02-07T21:41:50.189Z,998.19
2019-02-07T21:42:50.181Z,998.21
2019-02-07T21:43:50.179Z,998.24
2019-02-07T21:44:50.162Z,998.28
2019-02-07T21:45:50.146Z,998.32
2019-02-07T21:46:50.143Z,998.31
2019-02-07T21:47:50.127Z,998.33
2019-02-07T21:48:50.121Z,998.34
2019-02-07T21:49:50.112Z,998.37
2019-02-07T21:50:50.101Z,998.35
2019-02-07T21:51:50.093Z,998.38
2019-02-07T21:52:50.083Z,998.37
2019-02-07T21:53:50.095Z,998.40
2019-02-07T21:54:50.063Z,998.49
2019-02-07T21:55:50.056Z,998.47
2019-02-07T21:56:50.043Z,998.45
2019-02-07T21:57:50.044Z,998.50
2019-02-07T21:58:50.020Z,998.50
2019-02-07T21:59:50.016Z,998.48
2019-02-07T22:00:50.006Z,998.51
2019-02-07T22:01:49.996Z,998.49
2019-02-07T22:02:49.986Z,998.51
2019-02-07T22:03:49.977Z,998.53
2019-02-07T22:04:49.969Z,998.59
2019-02-07T22:05:49.958Z,998.53
2019-02-07T22:06:49.994Z,998.60
2019-02-07T22:07:49.939Z,998.65
2019-02-07T22:08:49.929Z,998.67
2019-02-07T22:09:49.919Z,998.64
2019-02-07T22:10:49.911Z,998.68
2019-02-07T22:11:49.903Z,998.69
2019-02-07T22:12:49.906Z,998.71
2019-02-07T22:13:49.896Z,998.71
2019-02-07T22:14:49.874Z,998.71
2019-02-07T22:15:49.867Z,998.74
2019-02-07T22:16:49.859Z,998.74
2019-02-07T22:17:49.844Z,998.70
2019-02-07T22:18:49.840Z,998.69
2019-02-07T22:19:49.826Z,998.70
2019-02-07T22:20:49.815Z,998.71
2019-02-07T22:21:49.806Z,998.67
2019-02-07T22:22:49.795Z,998.68
2019-02-07T22:23:49.786Z,998.61
2019-02-07T22:24:49.777Z,998.64
2019-02-07T22:25:49.771Z,998.61
2019-02-07T22:26:49.758Z,998.67
2019-02-07T22:27:49.752Z,998.53
2019-02-07T22:28:49.740Z,998.63
2019-02-07T22:29:49.728Z,998.64
2019-02-07T22:30:49.720Z,998.63
2019-02-07T22:31:49.716Z,998.61
2019-02-07T22:32:49.702Z,998.64
2019-02-07T22:33:49.694Z,998.70
2019-02-07T22:34:49.681Z,998.67
2019-02-07T22:35:49.673Z,998.67
2019-02-07T22:36:49.663Z,998.68
2019-02-07T22:37:49.652Z,998.64
2019-02-07T22:38:49.646Z,998.66
2019-02-07T22:39:49.634Z,998.67
2019-02-07T22:40:49.627Z,998.73
2019-02-07T22:41:49.614Z,998.65
2019-02-07T22:42:49.607Z,998.70
2019-02-07T22:43:49.596Z,998.68
2019-02-07T22:44:49.583Z,998.72
2019-02-07T22:45:49.756Z,998.72
2019-02-07T22:46:49.643Z,998.72
2019-02-07T22:47:49.559Z,998.71
2019-02-07T22:48:49.548Z,998.69
2019-02-07T22:49:49.599Z,998.68
2019-02-07T22:50:49.528Z,998.69
2019-02-07T22:51:49.518Z,998.68
2019-02-07T22:52:56.515Z,998.65
2019-02-07T22:53:49.511Z,998.66
2019-02-07T22:54:49.490Z,998.61
2019-02-07T22:55:49.481Z,998.64
2019-02-07T22:56:49.470Z,998.59
2019-02-07T22:57:49.462Z,998.65
2019-02-07T22:58:49.464Z,998.68
2019-02-07T22:59:49.447Z,998.64
2019-02-07T23:00:49.428Z,998.71
2019-02-07T23:01:49.420Z,998.72
2019-02-07T23:02:49.412Z,998.74
2019-02-07T23:03:49.404Z,998.72
2019-02-07T23:04:49.393Z,998.72
2019-02-07T23:05:49.383Z,998.73
2019-02-07T23:06:49.381Z,998.67
2019-02-07T23:07:49.365Z,998.69
2019-02-07T23:08:49.383Z,998.69
2019-02-07T23:09:49.346Z,998.72
2019-02-07T23:10:49.336Z,998.77
2019-02-07T23:11:49.325Z,998.76
2019-02-07T23:12:49.321Z,998.76
2019-02-07T23:13:49.309Z,998.78
2019-02-07T23:14:49.298Z,998.77
2019-02-07T23:15:49.287Z,998.75
2019-02-07T23:16:49.277Z,998.75
2019-02-07T23:17:49.287Z,998.74
2019-02-07T23:18:49.263Z,998.78
2019-02-07T23:19:49.246Z,998.78
2019-02-07T23:20:49.243Z,998.81
2019-02-07T23:21:49.228Z,998.84
2019-02-07T23:22:49.223Z,998.85
2019-02-07T23:23:49.213Z,998.86
2019-02-07T23:24:49.205Z,998.84
2019-02-07T23:25:49.189Z,998.89
2019-02-07T23:26:49.183Z,998.91
2019-02-07T23:27:49.171Z,998.91
2019-02-07T23:28:49.163Z,998.88
2019-02-07T23:29:49.152Z,998.93
2019-02-07T23:30:49.144Z,998.95
2019-02-07T23:31:49.132Z,998.93
2019-02-07T23:32:49.123Z,998.95
2019-02-07T23:33:49.116Z,998.92
2019-02-07T23:34:49.102Z,998.90
2019-02-07T23:35:49.096Z,998.93
2019-02-07T23:36:49.085Z,998.94
2019-02-07T23:37:49.070Z,998.95
2019-02-07T23:38:49.065Z,998.95
2019-02-07T23:39:49.061Z,998.97
2019-02-07T23:40:49.048Z,999.05
2019-02-07T23:41:49.121Z,999.07
2019-02-07T23:42:49.030Z,999.03
2019-02-07T23:43:49.019Z,999.02
2019-02-07T23:44:49.006Z,999.02
2019-02-07T23:45:49.002Z,999.03
2019-02-07T23:46:48.988Z,999.06
2019-02-07T23:47:48.990Z,999.01
2019-02-07T23:48:48.974Z,998.95
2019-02-07T23:49:48.960Z,998.96
2019-02-07T23:50:48.960Z,998.93
2019-02-07T23:51:48.942Z,998.90
2019-02-07T23:52:48.930Z,998.93
2019-02-07T23:53:48.923Z,998.92
2019-02-07T23:54:48.915Z,998.90
2019-02-07T23:55:48.901Z,998.92
2019-02-07T23:56:48.898Z,998.90
2019-02-07T23:57:48.884Z,998.90
2019-02-07T23:58:48.875Z,998.94
2019-02-07T23:59:48.867Z,998.88
